Currently 81°F in French Valley, California, USA
81°F
81°F / 51°F
5 mph NW
0.00"
Tuesday, April 23, 2019 11:32 AM PDT

French Valley, California Weather Summary
Last 36 Hours

Temperature Winds Hourly Humidity Dewpoint
Time Report Norm Report Norm Max Gusts Precip. Rpt. Norm Rpt. Norm Pressure
1,2Tue 11:32 AM  80.7°F  70°F  5 mph NW  4 mph  14 mph  0.00"  34%  51%  49°F  50°F  30.03"
Tue 11:00 AM  77.1°F  68°F  2 mph NW  4 mph  8 mph  0.00"  46%  54%  54°F  50°F  30.05"
Tue 10:00 AM  72.4°F  65°F  6 mph W  3 mph  7 mph  0.00"  54%  62%  54°F  51°F  30.06"
Tue 09:00 AM  65.4°F  60°F  3 mph W  3 mph  6 mph  0.00"  76%  73%  57°F  51°F  30.06"
Tue 08:00 AM  59.1°F  56°F  calm  2 mph  3 mph  0.00"  94%  82%  57°F  51°F  30.07"
Tue 07:00 AM  53.2°F  53°F  2 mph N  1 mph  4 mph  0.00"  97%  87%  52°F  49°F  30.08"
3Tue 06:24 AM  51.4°F  52°F  1 mph E  1 mph  2 mph  ----  97%  87%  51°F  48°F  30.07"
Tue 06:00 AM  51.7°F  52°F  1 mph NE  1 mph  none  0.00"  97%  87%  51°F  49°F  30.06"
Tue 05:00 AM  52.3°F  53°F  calm  1 mph  4 mph  0.00"  96%  87%  51°F  49°F  30.06"
Tue 04:00 AM  53.3°F  53°F  calm  1 mph  3 mph  0.00"  96%  86%  52°F  49°F  30.05"
Tue 03:00 AM  53.1°F  54°F  calm  1 mph  3 mph  0.00"  96%  85%  52°F  49°F  30.05"
Tue 02:00 AM  54.6°F  55°F  calm  2 mph  3 mph  0.00"  95%  85%  53°F  50°F  30.06"
Tue 01:00 AM  55.0°F  55°F  calm  1 mph  6 mph  0.00"  94%  84%  53°F  50°F  30.06"
Tue 12:00 AM  56.2°F  56°F  2 mph SE  1 mph  4 mph  0.00"  93%  83%  54°F  51°F  30.06"
Mon 11:00 PM  57.3°F  57°F  calm  2 mph  4 mph  0.00"  89%  82%  54°F  51°F  30.06"
Mon 10:00 PM  59.7°F  58°F  calm  3 mph  5 mph  0.00"  86%  80%  55°F  52°F  30.05"
Mon 09:00 PM  61.1°F  60°F  4 mph S  3 mph  5 mph  0.00"  84%  76%  56°F  52°F  30.03"
Mon 08:00 PM  62.9°F  62°F  3 mph SE  5 mph  12 mph  0.00"  80%  71%  56°F  52°F  30.02"
Mon 07:00 PM  63.5°F  65°F  5 mph S  6 mph  17 mph  0.00"  78%  64%  56°F  52°F  30.00"
Mon 06:00 PM  66.5°F  69°F  9 mph SW  7 mph  18 mph  0.00"  72%  57%  57°F  52°F  30.00"
Mon 05:00 PM  68.9°F  71°F  8 mph S  8 mph  17 mph  0.00"  65%  52%  56°F  52°F  29.98"
Mon 04:00 PM  71.1°F  73°F  7 mph S  8 mph  22 mph  0.00"  59%  48%  55°F  51°F  29.97"
Mon 03:00 PM  74.6°F  74°F  9 mph S  7 mph  19 mph  0.00"  52%  45%  55°F  51°F  29.98"
Mon 02:00 PM  74.0°F  74°F  5 mph SW  7 mph  14 mph  0.00"  52%  44%  54°F  50°F  30.01"
Mon 01:00 PM  72.5°F  73°F  5 mph S  6 mph  18 mph  0.00"  55%  45%  55°F  50°F  30.03"
Mon 12:00 PM  70.5°F  71°F  3 mph S  5 mph  11 mph  0.00"  54%  47%  53°F  49°F  30.05"
Mon 11:00 AM  66.5°F  68°F  4 mph W  4 mph  12 mph  0.00"  60%  53%  52°F  50°F  30.07"
Mon 10:00 AM  61.0°F  65°F  4 mph SW  3 mph  11 mph  0.00"  74%  62%  52°F  51°F  30.08"
Mon 09:00 AM  58.2°F  60°F  4 mph W  3 mph  5 mph  0.00"  84%  72%  53°F  51°F  30.09"
Mon 08:00 AM  53.5°F  56°F  calm  2 mph  5 mph  0.00"  92%  81%  51°F  50°F  30.10"
Mon 07:00 AM  50.4°F  52°F  calm  1 mph  4 mph  0.00"  96%  86%  49°F  48°F  30.10"
Mon 06:00 AM  49.0°F  52°F  calm  1 mph  3 mph  0.00"  95%  87%  48°F  48°F  30.09"
Mon 05:00 AM  50.2°F  53°F  calm  1 mph  5 mph  0.00"  93%  86%  48°F  48°F  30.08"
Mon 04:00 AM  52.6°F  53°F  calm  1 mph  5 mph  0.00"  90%  85%  50°F  49°F  30.08"
Mon 03:00 AM  53.3°F  54°F  2 mph SE  1 mph  6 mph  0.00"  89%  85%  50°F  49°F  30.08"
Mon 02:00 AM  53.5°F  54°F  4 mph SE  1 mph  4 mph  0.00"  88%  84%  50°F  50°F  30.09"
Mon 01:00 AM  53.5°F  55°F  2 mph SE  1 mph  6 mph  0.00"  89%  83%  50°F  50°F  30.10"
Mon 12:00 AM  53.4°F  56°F  4 mph S  1 mph  5 mph  0.00"  89%  82%  50°F  50°F  30.10"

  1. Current weather data. No green row appears if the current weather data is also the high or low for the current day.
  2. High temperature for the current day.
  3. Low temperature for the current day.

The French Valley, California weather pages are a service of WeatherCurrents. French Valley is located in southwestern Riverside County, California, north of Temecula, east of Murrieta, and south of Winchester. French Valley is bordered by Lake Skinner.
Copyright ©2019  WeatherCurrents. All rights reserved. - Submit questions and comments - Privacy Policy

This page automatically refreshes every 10 minutes.